Time;durP1;ratioP1;P1;durP2;ratioP2;P2;SDS_P1;SDS_P2;PMS_P1;PMS_P2;Temp;Humidity;BMP_temperature;BMP_pressure;BME280_temperature;BME280_humidity;BME280_pressure;Samples;Min_cycle;Max_cycle;Signal;HPM_P1;HPM_P2
2024/02/04 07:29:27;;;;;;;2.33;0.90;;;;;;;6.59;90.91;97618.69;2082693;28;20557;-67
2024/02/04 07:30:28;;;;;;;2.30;0.80;;;;;;;6.71;90.77;97621.13;2073966;28;20711;-68
2024/02/04 07:31:30;;;;;;;2.20;0.88;;;;;;;7.00;89.29;97618.09;2069763;28;20295;-68
2024/02/04 07:32:34;;;;;;;1.10;0.60;;;;;;;7.27;87.92;97609.91;2068775;28;20205;-68
2024/02/04 07:33:36;;;;;;;1.38;0.70;;;;;;;7.50;87.12;97631.19;2073040;28;20201;-68
2024/02/04 07:34:38;;;;;;;4.97;0.60;;;;;;;7.47;86.44;97626.03;2073736;28;20247;-68
2024/02/04 07:35:39;;;;;;;1.10;0.60;;;;;;;7.67;86.17;97637.84;2062185;28;20857;-67
2024/02/04 07:36:41;;;;;;;1.30;0.70;;;;;;;7.73;85.59;97632.50;2063677;28;20599;-67
2024/02/04 07:37:44;;;;;;;1.30;0.60;;;;;;;7.81;85.21;97628.06;2068320;28;20201;-67
2024/02/04 07:38:45;;;;;;;2.10;0.90;;;;;;;8.11;84.06;97633.59;2067422;28;20254;-67
2024/02/04 07:39:46;;;;;;;1.23;0.70;;;;;;;8.36;83.34;97637.44;2064797;28;20208;-67
2024/02/04 07:40:48;;;;;;;1.67;0.90;;;;;;;8.39;82.24;97629.56;2065638;28;20588;-67
2024/02/04 07:41:49;;;;;;;1.20;0.70;;;;;;;8.23;82.64;97627.28;2064761;28;20194;-67
2024/02/04 07:42:51;;;;;;;1.92;0.73;;;;;;;8.25;83.07;97625.50;2063463;28;20713;-67
2024/02/04 07:43:52;;;;;;;2.05;0.88;;;;;;;8.40;82.33;97626.09;2062187;28;20728;-67
2024/02/04 07:44:54;;;;;;;2.30;0.90;;;;;;;8.47;81.78;97618.16;2062724;28;20554;-67
2024/02/04 07:45:55;;;;;;;1.15;0.60;;;;;;;8.48;81.50;97625.06;2065633;28;20202;-67
2024/02/04 07:46:57;;;;;;;1.55;0.60;;;;;;;8.59;81.06;97629.19;2062940;28;20195;-67
2024/02/04 07:47:58;;;;;;;2.30;0.82;;;;;;;8.65;80.84;97629.06;2061725;28;20206;-67
2024/02/04 07:49:00;;;;;;;1.67;1.00;;;;;;;8.81;80.47;97634.78;2062358;28;20814;-67
2024/02/04 07:50:01;;;;;;;1.45;0.77;;;;;;;8.66;80.40;97622.97;2064265;28;20227;-67
2024/02/04 07:51:03;;;;;;;6.18;1.98;;;;;;;8.72;80.51;97619.38;2065771;28;20229;-65
2024/02/04 07:52:05;;;;;;;9.63;4.60;;;;;;;8.75;80.49;97630.56;2064528;28;20214;-67
2024/02/04 07:53:14;;;;;;;3.55;1.95;;;;;;;8.53;80.81;97618.91;2062954;28;20198;-67
2024/02/04 07:54:15;;;;;;;5.20;3.30;;;;;;;8.45;81.55;97624.25;2063919;28;20201;-62
2024/02/04 07:55:17;;;;;;;5.70;3.63;;;;;;;8.36;81.86;97619.22;2060779;28;20247;-64
2024/02/04 07:56:19;;;;;;;2.95;2.03;;;;;;;7.98;82.65;97606.06;2060507;28;20199;-65
2024/02/04 07:57:20;;;;;;;3.97;2.40;;;;;;;7.76;83.58;97598.69;2059159;28;20246;-64
2024/02/04 07:58:22;;;;;;;2.05;0.95;;;;;;;7.51;85.12;97617.28;2062940;28;20206;-67
2024/02/04 07:59:23;;;;;;;2.40;0.77;;;;;;;7.55;85.32;97623.28;2066098;28;20288;-64
2024/02/04 08:00:25;;;;;;;2.30;0.65;;;;;;;7.56;85.78;97616.38;2062982;28;20317;-67
2024/02/04 08:01:26;;;;;;;2.10;0.73;;;;;;;7.74;84.65;97613.44;2063012;28;20249;-67
2024/02/04 08:02:28;;;;;;;1.20;0.70;;;;;;;7.74;84.41;97617.78;2062969;28;20209;-67
2024/02/04 08:03:30;;;;;;;1.20;0.60;;;;;;;8.00;83.75;97615.56;2062538;28;20249;-67
2024/02/04 08:04:31;;;;;;;1.10;0.52;;;;;;;8.03;83.17;97604.25;2063406;28;20257;-67
2024/02/04 08:05:35;;;;;;;1.10;0.50;;;;;;;8.02;83.06;97602.53;2053587;28;20710;-67
2024/02/04 08:06:37;;;;;;;1.40;0.65;;;;;;;8.15;82.63;97603.13;2061416;28;20193;-67
2024/02/04 08:07:39;;;;;;;1.00;0.50;;;;;;;8.17;82.30;97593.56;2057312;28;20228;-67
2024/02/04 08:08:42;;;;;;;2.85;0.60;;;;;;;8.26;82.43;97608.97;2063753;28;20198;-67
2024/02/04 08:09:44;;;;;;;1.10;0.50;;;;;;;8.21;82.64;97603.00;2064898;28;20207;-67
2024/02/04 08:10:45;;;;;;;1.00;0.50;;;;;;;8.29;82.50;97608.94;2060475;28;20245;-67
2024/02/04 08:11:47;;;;;;;1.17;0.50;;;;;;;8.06;82.72;97590.31;2062255;28;20201;-67
2024/02/04 08:12:50;;;;;;;1.00;0.50;;;;;;;8.09;82.81;97609.34;2061743;28;20264;-67
2024/02/04 08:13:52;;;;;;;1.08;0.47;;;;;;;8.20;83.10;97616.06;2061014;28;20305;-67
2024/02/04 08:14:54;;;;;;;1.05;0.50;;;;;;;8.28;82.67;97616.78;2061748;28;20258;-67
2024/02/04 08:15:55;;;;;;;1.00;0.50;;;;;;;8.36;82.27;97604.47;2064823;28;20202;-67
2024/02/04 08:16:57;;;;;;;1.35;0.50;;;;;;;8.43;82.08;97613.00;2065817;28;20194;-67
2024/02/04 08:17:58;;;;;;;1.00;0.40;;;;;;;8.50;81.39;97618.06;2064106;28;20281;-67
2024/02/04 08:19:00;;;;;;;1.00;0.50;;;;;;;8.57;81.03;97621.41;2058025;28;20227;-67
2024/02/04 08:20:03;;;;;;;1.00;0.50;;;;;;;8.56;80.91;97621.44;2063057;28;20618;-67
2024/02/04 08:21:05;;;;;;;1.00;0.60;;;;;;;8.28;81.77;97620.22;2061956;28;20215;-67
2024/02/04 08:22:07;;;;;;;1.00;0.50;;;;;;;8.22;82.19;97628.16;2056819;28;20566;-67
2024/02/04 08:23:08;;;;;;;1.40;0.50;;;;;;;8.16;82.29;97628.28;2061128;28;20202;-67
2024/02/04 08:24:10;;;;;;;1.40;0.60;;;;;;;8.21;82.77;97630.78;2059793;28;20207;-67
2024/02/04 08:25:11;;;;;;;1.00;0.50;;;;;;;7.97;82.49;97605.22;2063786;28;20202;-67
2024/02/04 08:26:13;;;;;;;1.08;0.50;;;;;;;8.11;82.68;97637.91;2061193;28;20285;-66
2024/02/04 08:27:16;;;;;;;1.65;0.70;;;;;;;8.20;82.41;97619.50;2060366;28;20199;-67
2024/02/04 08:28:17;;;;;;;1.27;0.52;;;;;;;8.47;81.40;97628.56;2065055;28;20564;-67
2024/02/04 08:29:19;;;;;;;3.50;0.55;;;;;;;8.77;80.46;97633.16;2071668;28;20600;-67
2024/02/04 08:30:20;;;;;;;1.00;0.50;;;;;;;8.92;79.79;97631.97;2065025;28;20366;-67
2024/02/04 08:31:22;;;;;;;1.20;0.70;;;;;;;8.95;79.03;97627.53;2062622;28;20374;-67
2024/02/04 08:32:24;;;;;;;1.13;0.50;;;;;;;8.99;79.55;97623.97;2066529;28;20207;-67
2024/02/04 08:33:25;;;;;;;1.65;0.70;;;;;;;9.07;79.14;97638.56;2063189;28;20202;-67
2024/02/04 08:34:26;;;;;;;1.50;0.80;;;;;;;9.13;78.87;97617.59;2061497;28;20214;-67
2024/02/04 08:35:28;;;;;;;1.55;0.80;;;;;;;8.92;79.04;97635.41;2060532;28;20694;-67
2024/02/04 08:36:30;;;;;;;1.35;0.70;;;;;;;8.61;79.90;97625.66;2060066;28;20236;-67
2024/02/04 08:37:33;;;;;;;1.80;0.73;;;;;;;8.55;80.52;97633.59;2065317;28;20268;-67
2024/02/04 08:38:34;;;;;;;2.13;0.98;;;;;;;8.63;81.07;97634.31;2065958;28;20248;-67
2024/02/04 08:39:36;;;;;;;1.52;0.82;;;;;;;8.73;80.46;97631.50;2065712;28;20617;-67
2024/02/04 08:40:37;;;;;;;1.40;0.60;;;;;;;8.72;80.13;97632.38;2060793;28;20717;-67
2024/02/04 08:41:39;;;;;;;1.52;0.77;;;;;;;8.57;80.21;97630.97;2058631;28;20697;-67
2024/02/04 08:42:41;;;;;;;1.75;0.70;;;;;;;8.31;81.28;97629.72;2055966;28;20250;-67
2024/02/04 08:43:42;;;;;;;1.90;0.90;;;;;;;8.23;81.68;97637.69;2053992;28;20241;-67
2024/02/04 08:44:44;;;;;;;1.20;0.60;;;;;;;8.20;82.18;97639.47;2057466;28;20710;-67
2024/02/04 08:45:45;;;;;;;1.48;0.77;;;;;;;8.23;82.22;97644.59;2060190;28;20222;-67
2024/02/04 08:46:47;;;;;;;1.17;0.60;;;;;;;8.08;82.12;97646.63;2060175;28;20205;-65
2024/02/04 08:47:48;;;;;;;1.73;0.80;;;;;;;7.99;82.71;97644.22;2059483;28;20207;-64
2024/02/04 08:48:50;;;;;;;16.42;9.48;;;;;;;8.01;83.09;97643.28;2054228;28;20235;-67
2024/02/04 08:49:51;;;;;;;4.82;2.58;;;;;;;7.91;83.16;97639.16;2054803;28;20258;-65
2024/02/04 08:50:54;;;;;;;31.05;17.05;;;;;;;7.99;82.99;97626.84;2055701;28;20226;-64
2024/02/04 08:51:56;;;;;;;1.17;0.52;;;;;;;7.96;83.00;97636.44;2060064;28;20344;-64
2024/02/04 08:52:57;;;;;;;1.15;0.57;;;;;;;8.11;82.64;97632.72;2058454;28;20286;-64
2024/02/04 08:53:59;;;;;;;1.30;0.50;;;;;;;8.07;82.80;97631.06;2056502;28;20278;-64
2024/02/04 08:55:03;;;;;;;1.20;0.70;;;;;;;8.05;82.98;97628.50;2056067;28;20282;-64
2024/02/04 08:56:06;;;;;;;1.10;0.50;;;;;;;8.02;82.76;97620.72;2055629;28;20665;-64
2024/02/04 08:57:07;;;;;;;1.02;0.47;;;;;;;7.81;83.28;97622.84;2056333;28;20198;-65
2024/02/04 08:58:09;;;;;;;1.63;0.50;;;;;;;7.82;83.29;97613.28;2057822;28;20198;-64
2024/02/04 08:59:10;;;;;;;1.65;0.60;;;;;;;7.93;83.28;97613.09;2058204;28;20203;-64
2024/02/04 09:00:14;;;;;;;2.15;0.88;;;;;;;7.95;83.17;97612.19;2054711;28;20283;-64
2024/02/04 09:01:15;;;;;;;1.33;0.80;;;;;;;8.01;83.30;97627.69;2054713;28;20263;-64
2024/02/04 09:02:17;;;;;;;1.25;0.75;;;;;;;7.85;83.25;97631.47;2059268;28;20229;-64
2024/02/04 09:03:18;;;;;;;1.40;0.80;;;;;;;7.71;83.47;97623.91;2058948;28;20251;-66
2024/02/04 09:04:20;;;;;;;2.17;1.17;;;;;;;7.78;83.92;97632.44;2059262;28;20340;-66
2024/02/04 09:05:22;;;;;;;2.50;1.10;;;;;;;7.68;84.19;97639.53;2056910;28;20243;-66
2024/02/04 09:06:24;;;;;;;1.95;0.85;;;;;;;7.72;84.01;97635.16;2059197;28;20228;-65
2024/02/04 09:07:25;;;;;;;2.83;1.50;;;;;;;7.84;83.48;97635.78;2059037;28;20747;-65
2024/02/04 09:08:27;;;;;;;2.58;1.25;;;;;;;7.96;83.20;97624.31;2057207;28;20202;-65
2024/02/04 09:09:28;;;;;;;1.50;0.70;;;;;;;7.75;82.71;97622.94;2056954;28;20203;-65
2024/02/04 09:10:30;;;;;;;2.78;1.20;;;;;;;7.79;83.33;97634.16;2056690;28;20225;-66
2024/02/04 09:11:31;;;;;;;2.53;1.38;;;;;;;7.66;83.90;97634.38;2061782;28;20202;-65
2024/02/04 09:12:33;;;;;;;2.75;1.00;;;;;;;7.72;84.44;97640.34;2059974;28;20202;-65
2024/02/04 09:13:34;;;;;;;2.47;1.30;;;;;;;7.74;84.12;97636.84;2060884;28;20202;-66
2024/02/04 09:14:36;;;;;;;2.10;0.80;;;;;;;7.68;84.09;97619.63;2060485;28;20202;-65
2024/02/04 09:15:38;;;;;;;1.10;0.70;;;;;;;7.83;83.66;97630.63;2058191;28;20225;-65
2024/02/04 09:16:39;;;;;;;1.27;0.57;;;;;;;8.16;82.71;97633.47;2056151;28;20275;-65
2024/02/04 09:17:41;;;;;;;1.45;0.75;;;;;;;8.26;82.31;97632.41;2057306;28;20600;-65
2024/02/04 09:18:43;;;;;;;1.20;0.50;;;;;;;8.30;82.41;97641.88;2059699;28;20206;-66
2024/02/04 09:19:44;;;;;;;1.00;0.60;;;;;;;8.56;81.45;97635.31;2056879;28;20412;-66
2024/02/04 09:20:47;;;;;;;1.33;0.60;;;;;;;8.71;80.82;97636.75;2058135;28;20235;-66
2024/02/04 09:21:49;;;;;;;1.00;0.50;;;;;;;8.62;80.43;97636.91;2058490;28;20698;-66
2024/02/04 09:22:50;;;;;;;1.20;0.60;;;;;;;8.47;80.64;97625.09;2055874;28;20203;-66
2024/02/04 09:23:53;;;;;;;1.45;0.65;;;;;;;8.40;80.68;97646.91;2053769;28;20660;-66
2024/02/04 09:24:54;;;;;;;1.55;0.70;;;;;;;8.34;80.98;97648.75;2053099;28;20290;-66
2024/02/04 09:25:56;;;;;;;1.10;0.50;;;;;;;8.44;81.07;97657.22;2048314;28;20684;-66
2024/02/04 09:26:58;;;;;;;3.08;1.10;;;;;;;8.41;81.19;97648.63;2056826;28;20204;-66
2024/02/04 09:27:59;;;;;;;1.80;0.70;;;;;;;8.77;80.23;97638.34;2060027;28;20203;-66
2024/02/04 09:29:01;;;;;;;1.20;0.55;;;;;;;9.37;78.76;97647.44;2059750;28;20210;-66
2024/02/04 09:30:03;;;;;;;1.48;0.50;;;;;;;9.55;77.41;97640.91;2059579;28;20240;-66
2024/02/04 09:31:09;;;;;;;1.40;0.68;;;;;;;9.43;77.42;97642.06;2059664;28;20751;-66
2024/02/04 09:32:11;;;;;;;1.42;0.50;;;;;;;9.50;76.89;97650.59;2058249;28;20972;-66
2024/02/04 09:33:14;;;;;;;1.10;0.60;;;;;;;9.54;76.39;97643.56;2056243;28;20195;-68
2024/02/04 09:34:16;;;;;;;1.00;0.50;;;;;;;9.18;77.24;97660.03;2055300;28;20301;-66
2024/02/04 09:35:22;;;;;;;1.20;0.50;;;;;;;9.05;78.11;97651.63;2057910;28;20219;-66
2024/02/04 09:36:27;;;;;;;1.00;0.50;;;;;;;9.25;77.43;97668.56;2058421;28;20195;-66
2024/02/04 09:37:29;;;;;;;1.23;0.60;;;;;;;9.58;76.31;97663.44;2057224;28;20229;-68
2024/02/04 09:38:31;;;;;;;1.20;0.60;;;;;;;9.32;77.06;97657.97;2057898;28;20234;-68
2024/02/04 09:39:32;;;;;;;3.22;0.70;;;;;;;9.27;77.59;97672.84;2056352;28;20605;-69
2024/02/04 09:40:34;;;;;;;1.83;0.90;;;;;;;9.36;77.70;97673.50;2049993;28;20596;-69
2024/02/04 09:41:36;;;;;;;2.90;1.30;;;;;;;9.39;77.63;97660.41;2055553;28;20201;-69
2024/02/04 09:42:38;;;;;;;1.35;0.70;;;;;;;9.07;77.82;97664.63;2054732;28;20202;-68
2024/02/04 09:43:40;;;;;;;1.13;0.50;;;;;;;9.00;78.07;97676.91;2054037;28;20265;-69
2024/02/04 09:44:42;;;;;;;1.10;0.50;;;;;;;8.79;79.06;97675.66;2054278;28;20741;-69
2024/02/04 09:45:43;;;;;;;1.20;0.60;;;;;;;8.61;79.62;97687.31;2048154;28;20222;-66
2024/02/04 09:46:45;;;;;;;1.20;0.50;;;;;;;8.47;80.08;97674.56;2055981;28;20199;-66
2024/02/04 09:47:50;;;;;;;1.10;0.50;;;;;;;8.37;80.53;97680.78;2057070;28;20206;-66
2024/02/04 09:48:53;;;;;;;1.20;0.50;;;;;;;8.23;80.95;97673.22;2052146;28;20205;-66
2024/02/04 09:49:56;;;;;;;1.00;0.60;;;;;;;8.34;81.00;97676.50;2056771;28;20348;-66
2024/02/04 09:50:58;;;;;;;1.10;0.50;;;;;;;8.44;80.77;97671.97;2056775;28;20227;-66
2024/02/04 09:52:06;;;;;;;1.58;0.50;;;;;;;8.35;80.81;97673.00;2058081;28;20285;-65
2024/02/04 09:53:09;;;;;;;1.10;0.60;;;;;;;8.31;81.02;97672.22;2056939;28;20203;-66
2024/02/04 09:54:12;;;;;;;1.00;0.50;;;;;;;8.26;80.83;97665.38;2053856;28;20290;-65
2024/02/04 09:55:16;;;;;;;1.10;0.50;;;;;;;8.23;81.82;97663.69;2054406;28;20840;-66
2024/02/04 09:56:25;;;;;;;4.20;0.60;;;;;;;8.26;82.03;97655.81;2058202;28;20202;-66
2024/02/04 09:57:28;;;;;;;1.23;0.50;;;;;;;8.07;81.58;97657.91;2055937;28;20294;-65
2024/02/04 09:58:29;;;;;;;1.30;0.60;;;;;;;8.15;81.77;97655.16;2053575;28;20200;-66
2024/02/04 09:59:31;;;;;;;2.13;0.60;;;;;;;8.21;81.57;97651.59;2050519;28;20635;-65
2024/02/04 10:00:34;;;;;;;1.00;0.50;;;;;;;8.18;81.56;97648.16;2054822;28;20230;-65
2024/02/04 10:01:36;;;;;;;1.00;0.50;;;;;;;8.19;81.39;97643.84;2057774;28;20291;-66
2024/02/04 10:02:38;;;;;;;1.02;0.52;;;;;;;8.22;81.25;97641.16;2059957;28;20241;-65
2024/02/04 10:03:40;;;;;;;1.00;0.50;;;;;;;8.17;81.07;97625.63;2060714;28;20749;-65
2024/02/04 10:04:42;;;;;;;1.00;0.50;;;;;;;8.32;80.46;97616.66;2055084;28;20261;-65
2024/02/04 10:05:44;;;;;;;1.00;0.50;;;;;;;8.61;80.00;97624.81;2041030;28;20226;-65
2024/02/04 10:06:46;;;;;;;1.05;0.60;;;;;;;8.58;79.99;97617.06;2054749;28;20249;-65
2024/02/04 10:07:48;;;;;;;1.10;0.50;;;;;;;8.40;80.38;97613.91;2054294;28;20199;-66
2024/02/04 10:08:50;;;;;;;1.80;0.90;;;;;;;8.20;80.98;97606.50;2057074;28;20230;-65
2024/02/04 10:09:52;;;;;;;2.05;0.90;;;;;;;8.19;81.23;97617.81;2058264;28;20195;-66
2024/02/04 10:10:57;;;;;;;11.27;0.60;;;;;;;8.26;81.21;97615.94;2056993;28;20382;-66
2024/02/04 10:11:59;;;;;;;1.00;0.60;;;;;;;8.21;81.26;97596.97;2049165;28;20270;-65
2024/02/04 10:13:06;;;;;;;1.00;0.47;;;;;;;8.25;81.50;97593.41;2052542;28;20254;-66
2024/02/04 10:14:08;;;;;;;1.08;0.60;;;;;;;8.18;81.16;97590.94;2055905;28;20203;-65
2024/02/04 10:15:10;;;;;;;1.00;0.50;;;;;;;8.12;81.47;97578.03;2055779;28;20237;-66
2024/02/04 10:16:16;;;;;;;1.23;0.60;;;;;;;8.20;81.70;97596.09;2056920;28;20789;-65
2024/02/04 10:17:20;;;;;;;1.20;0.57;;;;;;;8.31;81.17;97586.31;2060875;28;21045;-65
2024/02/04 10:18:22;;;;;;;1.15;0.57;;;;;;;8.19;81.40;97573.59;2059934;28;20407;-65
2024/02/04 10:19:25;;;;;;;1.00;0.50;;;;;;;8.28;81.28;97591.59;2059113;28;20198;-66
2024/02/04 10:20:27;;;;;;;1.00;0.50;;;;;;;8.26;81.20;97580.34;2055708;28;20313;-66
2024/02/04 10:21:29;;;;;;;1.00;0.50;;;;;;;8.33;81.17;97594.13;2055746;28;20211;-66
2024/02/04 10:22:31;;;;;;;1.10;0.50;;;;;;;8.27;81.17;97584.69;2062023;28;20217;-66
2024/02/04 10:23:33;;;;;;;1.00;0.50;;;;;;;8.33;81.26;97581.97;2060438;28;20298;-65
2024/02/04 10:24:34;;;;;;;1.75;0.60;;;;;;;8.45;80.94;97587.78;2055097;28;20204;-65
2024/02/04 10:25:36;;;;;;;0.95;0.50;;;;;;;8.48;80.59;97588.63;2052953;28;20226;-66
2024/02/04 10:26:40;;;;;;;1.50;0.60;;;;;;;8.58;80.71;97606.66;2054152;28;20210;-66
2024/02/04 10:27:42;;;;;;;1.10;0.50;;;;;;;8.54;81.39;97594.59;2056143;28;20233;-66
2024/02/04 10:28:46;;;;;;;1.10;0.50;;;;;;;8.64;80.97;97576.13;2057011;28;20201;-66
2024/02/04 10:29:48;;;;;;;1.30;0.63;;;;;;;8.74;80.38;97584.59;2060288;28;20258;-65
2024/02/04 10:30:49;;;;;;;2.70;0.57;;;;;;;8.76;80.13;97587.16;2061125;28;20853;-65
2024/02/04 10:31:57;;;;;;;1.40;0.52;;;;;;;8.80;80.07;97594.88;2057080;28;20206;-66
2024/02/04 10:32:59;;;;;;;1.20;0.60;;;;;;;8.79;79.98;97593.16;2055853;28;20256;-66
2024/02/04 10:34:01;;;;;;;1.10;0.50;;;;;;;8.86;79.73;97611.25;2052026;28;20207;-67
2024/02/04 10:35:03;;;;;;;1.00;0.40;;;;;;;8.83;79.61;97617.38;2052405;28;20281;-66
2024/02/04 10:36:06;;;;;;;1.10;0.50;;;;;;;9.03;79.21;97610.84;2054897;28;20195;-66
2024/02/04 10:37:07;;;;;;;1.40;0.65;;;;;;;8.96;78.97;97608.41;2054844;28;20278;-65
2024/02/04 10:38:11;;;;;;;1.25;0.60;;;;;;;9.06;79.19;97616.00;2056060;28;20204;-66
2024/02/04 10:39:13;;;;;;;1.65;0.70;;;;;;;9.14;78.67;97619.28;2057089;28;20290;-65
2024/02/04 10:40:18;;;;;;;1.30;0.60;;;;;;;9.18;78.93;97623.56;2053161;28;20204;-65
2024/02/04 10:41:27;;;;;;;1.10;0.60;;;;;;;9.22;79.17;97635.59;2054479;28;20195;-66
2024/02/04 10:42:30;;;;;;;1.40;0.70;;;;;;;9.14;79.13;97635.78;2052387;28;20244;-65
2024/02/04 10:43:34;;;;;;;2.08;0.70;;;;;;;8.91;79.24;97632.84;2055423;28;20632;-66
2024/02/04 10:44:39;;;;;;;1.50;0.90;;;;;;;8.83;79.41;97627.81;2061944;28;20195;-66
2024/02/04 10:45:45;;;;;;;2.95;1.05;;;;;;;8.78;79.84;97633.09;2056161;28;20250;-66
2024/02/04 10:46:48;;;;;;;3.67;2.10;;;;;;;8.98;79.78;97642.25;2049671;28;20245;-66
2024/02/04 10:47:57;;;;;;;8.60;3.35;;;;;;;9.05;79.42;97611.69;2049929;28;20817;-66
2024/02/04 10:49:01;;;;;;;4.07;1.20;;;;;;;9.32;79.22;97639.72;2048694;28;20215;-66
2024/02/04 10:50:04;;;;;;;3.88;1.80;;;;;;;9.19;79.27;97632.22;2051156;28;20225;-66
2024/02/04 10:51:06;;;;;;;4.45;2.75;;;;;;;8.97;79.33;97636.16;2058081;28;20621;-66
2024/02/04 10:52:09;;;;;;;2.13;1.25;;;;;;;8.86;79.83;97626.88;2055002;28;20206;-66
2024/02/04 10:53:14;;;;;;;1.92;1.10;;;;;;;8.80;79.15;97622.69;2056664;28;20198;-66
2024/02/04 10:54:17;;;;;;;3.40;2.35;;;;;;;9.03;79.30;97613.47;2056471;28;20206;-65
2024/02/04 10:55:27;;;;;;;11.00;7.28;;;;;;;9.00;78.80;97619.59;2054590;28;20194;-65
2024/02/04 10:56:42;;;;;;;12.00;6.63;;;;;;;8.76;78.79;97606.25;2058006;28;20199;-65
2024/02/04 10:57:44;;;;;;;15.25;8.98;;;;;;;8.70;79.29;97610.72;2055767;28;20597;-65
2024/02/04 10:58:47;;;;;;;14.38;9.10;;;;;;;9.12;78.85;97608.91;2051504;28;20207;-66
2024/02/04 10:59:49;;;;;;;17.35;10.02;;;;;;;9.28;78.07;97590.28;2056753;28;20229;-65
2024/02/04 11:00:50;;;;;;;6.50;3.88;;;;;;;9.49;77.49;97594.13;2056230;28;20223;-66
2024/02/04 11:01:52;;;;;;;2.20;0.70;;;;;;;9.59;76.88;97600.81;2057022;28;20314;-65
2024/02/04 11:02:55;;;;;;;14.65;9.13;;;;;;;9.62;77.02;97605.97;2060334;28;20211;-66
2024/02/04 11:03:58;;;;;;;7.97;4.18;;;;;;;9.54;77.10;97604.44;2057899;28;20249;-66
2024/02/04 11:05:01;;;;;;;1.95;1.38;;;;;;;9.36;77.56;97595.31;2056416;28;20786;-66
2024/02/04 11:06:03;;;;;;;1.38;0.70;;;;;;;9.09;77.75;97582.94;2057150;28;20595;-65
2024/02/04 11:07:06;;;;;;;1.10;0.63;;;;;;;8.83;78.34;97591.34;2057289;28;20242;-66
2024/02/04 11:08:10;;;;;;;1.08;0.60;;;;;;;8.72;79.42;97598.53;2057137;28;20641;-65
2024/02/04 11:09:14;;;;;;;1.10;0.60;;;;;;;8.76;79.64;97595.84;2058447;28;20199;-66
2024/02/04 11:10:16;;;;;;;1.10;0.60;;;;;;;8.70;79.27;97593.38;2057416;28;20199;-65
2024/02/04 11:11:19;;;;;;;1.00;0.50;;;;;;;8.62;79.91;97595.25;2057754;28;20278;-66
2024/02/04 11:12:21;;;;;;;3.13;0.50;;;;;;;8.51;80.24;97569.47;2055455;28;20376;-65
2024/02/04 11:13:24;;;;;;;1.50;0.50;;;;;;;8.37;80.54;97581.88;2057648;28;20282;-65
2024/02/04 11:14:27;;;;;;;6.97;0.60;;;;;;;8.10;81.36;97552.94;2055802;28;20546;-66
2024/02/04 11:15:35;;;;;;;1.35;0.60;;;;;;;8.42;81.49;97600.88;2058651;28;20223;-66
2024/02/04 11:16:48;;;;;;;1.00;0.50;;;;;;;8.32;81.73;97610.63;2058039;28;20229;-65
2024/02/04 11:17:55;;;;;;;1.33;0.60;;;;;;;8.35;82.01;97610.53;2056690;28;20203;-65
2024/02/04 11:19:11;;;;;;;1.35;0.70;;;;;;;8.28;81.94;97616.78;2045077;28;20311;-65
2024/02/04 11:20:35;;;;;;;1.10;0.57;;;;;;;8.11;82.40;97615.38;2055310;28;20195;-65
2024/02/04 11:22:04;;;;;;;1.10;0.60;;;;;;;8.00;82.61;97588.72;2055707;28;20207;-65
2024/02/04 11:23:22;;;;;;;1.00;0.50;;;;;;;8.22;82.49;97609.94;2055921;28;20282;-65
2024/02/04 11:24:52;;;;;;;1.15;0.70;;;;;;;8.16;82.72;97612.66;2053814;28;20191;-65
2024/02/04 11:25:57;;;;;;;1.55;0.85;;;;;;;8.25;82.15;97603.81;2049582;28;20224;-66
2024/02/04 11:27:00;;;;;;;1.30;0.80;;;;;;;8.35;82.26;97602.75;2046768;28;20204;-65
2024/02/04 11:28:02;;;;;;;1.30;0.75;;;;;;;8.36;82.18;97599.25;2059065;28;20575;-65
2024/02/04 11:29:03;;;;;;;1.50;0.70;;;;;;;8.30;82.33;97597.66;2051585;28;20203;-66
2024/02/04 11:30:06;;;;;;;1.10;0.57;;;;;;;8.33;82.44;97596.72;2057852;28;20237;-65
2024/02/04 11:31:20;;;;;;;1.00;0.50;;;;;;;8.38;82.25;97591.41;2057939;28;20702;-67
2024/02/04 11:32:24;;;;;;;26.50;12.48;;;;;;;8.41;82.17;97575.75;2053661;28;20194;-63
2024/02/04 11:33:28;;;;;;;5.13;2.50;;;;;;;8.41;82.11;97586.16;2055689;28;20192;-66
2024/02/04 11:34:30;;;;;;;6.82;2.10;;;;;;;8.35;82.52;97581.91;2051363;28;20231;-66
2024/02/04 11:35:36;;;;;;;1.67;0.77;;;;;;;8.30;82.62;97576.84;2055049;28;20218;-66
2024/02/04 11:36:41;;;;;;;2.67;1.02;;;;;;;8.35;82.44;97584.53;2051421;28;20863;-66
2024/02/04 11:37:45;;;;;;;1.00;0.57;;;;;;;8.26;82.37;97569.94;2051036;28;20226;-66
2024/02/04 11:38:49;;;;;;;1.25;0.60;;;;;;;8.25;82.80;97568.25;2059053;28;20988;-65
2024/02/04 11:39:52;;;;;;;1.00;0.60;;;;;;;8.17;82.75;97565.78;2064840;28;20240;-65
2024/02/04 11:40:54;;;;;;;1.10;0.50;;;;;;;8.12;82.97;97559.81;2046560;28;20230;-66
2024/02/04 11:41:56;;;;;;;1.00;0.50;;;;;;;8.21;82.91;97564.00;2056370;28;20230;-65
2024/02/04 11:43:11;;;;;;;1.10;0.50;;;;;;;8.15;82.78;97558.91;2055185;28;20274;-65
2024/02/04 11:44:26;;;;;;;1.30;0.60;;;;;;;8.15;82.86;97582.31;2056119;28;20206;-65
2024/02/04 11:45:28;;;;;;;1.00;0.50;;;;;;;8.10;83.19;97579.84;2049812;28;20293;-65
2024/02/04 11:46:33;;;;;;;1.30;0.60;;;;;;;8.09;83.16;97562.50;2060470;28;20206;-65
2024/02/04 11:47:37;;;;;;;1.10;0.50;;;;;;;8.14;82.75;97580.63;2055087;28;20211;-65
2024/02/04 11:48:39;;;;;;;1.10;0.60;;;;;;;8.10;82.98;97552.94;2057404;28;20205;-65
2024/02/04 11:49:40;;;;;;;1.20;0.60;;;;;;;7.95;82.98;97541.13;2057711;28;20195;-66
2024/02/04 11:50:52;;;;;;;1.38;0.60;;;;;;;8.11;83.17;97555.53;2055134;28;20230;-65
2024/02/04 11:51:54;;;;;;;1.23;0.50;;;;;;;8.05;82.76;97542.66;2056796;28;20215;-66
2024/02/04 11:53:06;;;;;;;1.00;0.50;;;;;;;8.14;82.63;97558.06;2049105;28;20210;-68
2024/02/04 11:54:08;;;;;;;1.00;0.50;;;;;;;8.25;82.76;97554.38;2058167;28;20190;-68
2024/02/04 11:55:15;;;;;;;1.10;0.50;;;;;;;8.33;82.50;97553.34;2059699;28;20543;-68
2024/02/04 11:56:18;;;;;;;1.50;0.70;;;;;;;8.46;81.97;97556.56;2058176;28;20236;-68
2024/02/04 11:57:22;;;;;;;1.00;0.50;;;;;;;8.52;82.08;97544.28;2060441;28;20217;-68
2024/02/04 11:58:24;;;;;;;1.60;0.60;;;;;;;8.43;81.91;97520.16;2060137;28;20646;-68
2024/02/04 11:59:26;;;;;;;1.13;0.50;;;;;;;8.59;81.69;97541.50;2056578;28;20342;-68
2024/02/04 12:00:28;;;;;;;1.20;0.60;;;;;;;8.58;81.02;97525.94;2056472;28;20325;-68
2024/02/04 12:01:31;;;;;;;1.00;0.50;;;;;;;8.56;81.65;97532.91;2059137;28;20194;-68
2024/02/04 12:02:33;;;;;;;1.85;0.70;;;;;;;8.42;81.30;97505.44;2055614;28;20196;-68
2024/02/04 12:03:35;;;;;;;0.98;0.50;;;;;;;8.48;81.33;97507.06;2047564;28;20295;-68
2024/02/04 12:04:39;;;;;;;1.00;0.50;;;;;;;8.71;81.45;97536.91;2055637;28;20196;-69
2024/02/04 12:05:42;;;;;;;1.20;0.65;;;;;;;8.55;80.92;97513.84;2057015;28;20320;-68
2024/02/04 12:06:44;;;;;;;1.00;0.50;;;;;;;8.61;81.22;97542.34;2053106;28;20330;-68
2024/02/04 12:07:46;;;;;;;1.17;0.50;;;;;;;8.55;81.29;97519.06;2057897;28;20237;-68
2024/02/04 12:08:48;;;;;;;1.85;1.13;;;;;;;8.54;80.87;97509.53;2056494;28;20235;-68
2024/02/04 12:09:50;;;;;;;2.00;0.95;;;;;;;8.58;81.17;97516.41;2059695;28;20696;-68
2024/02/04 12:10:53;;;;;;;2.97;0.70;;;;;;;8.59;81.09;97538.06;2059235;28;20309;-67
2024/02/04 12:11:54;;;;;;;1.00;0.60;;;;;;;8.48;81.39;97535.69;2059808;28;20327;-67
2024/02/04 12:12:56;;;;;;;1.20;0.60;;;;;;;8.44;81.70;97514.06;2057506;28;20676;-68
2024/02/04 12:14:01;;;;;;;1.60;0.80;;;;;;;8.66;82.18;97545.69;2057868;28;20718;-67
2024/02/04 12:15:04;;;;;;;1.00;0.60;;;;;;;8.49;81.76;97529.59;2056651;28;20754;-66
2024/02/04 12:16:08;;;;;;;1.27;0.60;;;;;;;8.46;81.96;97524.47;2058540;28;20226;-67
2024/02/04 12:17:10;;;;;;;1.40;0.73;;;;;;;8.59;81.98;97530.25;2051321;28;20322;-67
2024/02/04 12:18:14;;;;;;;1.50;0.70;;;;;;;8.64;82.12;97531.84;2060539;28;20203;-68
2024/02/04 12:19:16;;;;;;;1.35;0.50;;;;;;;8.49;81.41;97517.47;2057690;28;20223;-69
2024/02/04 12:20:19;;;;;;;1.48;0.60;;;;;;;8.52;81.94;97531.28;2060206;28;20985;-68
2024/02/04 12:21:21;;;;;;;1.13;0.68;;;;;;;8.61;81.66;97516.31;2060872;28;20198;-68
2024/02/04 12:22:23;;;;;;;1.27;0.70;;;;;;;8.75;81.62;97522.97;2060638;28;20603;-68
2024/02/04 12:23:26;;;;;;;3.00;1.60;;;;;;;8.70;81.37;97523.06;2052295;28;20650;-68
2024/02/04 12:24:28;;;;;;;2.95;1.42;;;;;;;8.75;81.21;97523.81;2049973;28;20204;-69
2024/02/04 12:25:30;;;;;;;1.35;0.60;;;;;;;8.69;81.01;97529.16;2054682;28;20848;-69
2024/02/04 12:26:32;;;;;;;3.58;0.70;;;;;;;8.73;81.08;97528.19;2061344;28;20199;-69
2024/02/04 12:27:35;;;;;;;2.25;0.70;;;;;;;8.77;80.83;97531.56;2068318;28;20637;-68
2024/02/04 12:28:36;;;;;;;1.92;0.90;;;;;;;8.52;81.04;97498.31;2063268;28;20892;-68
2024/02/04 12:29:38;;;;;;;2.95;1.63;;;;;;;8.68;81.18;97516.19;2065800;28;20202;-68